createdAt,value
2022-10-20T00:01:59.779Z,989.6
2022-10-20T00:04:00.950Z,989.6
2022-10-20T00:06:02.348Z,989.6
2022-10-20T00:08:03.729Z,989.5
2022-10-20T00:10:04.862Z,989.5
2022-10-20T00:12:06.071Z,989.4
2022-10-20T00:14:07.108Z,989.3
2022-10-20T00:18:09.975Z,989.4
2022-10-20T00:20:11.903Z,989.3
2022-10-20T00:22:13.001Z,989.3
2022-10-20T00:24:14.325Z,989.3
2022-10-20T00:26:15.963Z,989.3
2022-10-20T00:28:17.436Z,989.3
2022-10-20T00:30:20.379Z,989.2
2022-10-20T00:32:20.352Z,989.3
2022-10-20T00:34:21.896Z,989.3
2022-10-20T00:36:22.900Z,989.3
2022-10-20T00:38:24.618Z,989.2
2022-10-20T00:39:08.463Z,989.2
2022-10-20T00:41:09.699Z,989.2
2022-10-20T00:43:10.668Z,989.1
2022-10-20T00:45:12.059Z,989.2
2022-10-20T00:49:15.302Z,989.2
2022-10-20T00:51:17.223Z,989.3
2022-10-20T00:53:18.455Z,989.3
2022-10-20T00:55:19.445Z,989.2
2022-10-20T00:57:20.644Z,989.1
2022-10-20T00:59:22.445Z,989.2
2022-10-20T01:01:24.305Z,989.1
2022-10-20T01:03:25.380Z,989
2022-10-20T01:05:27.130Z,988.9
2022-10-20T01:07:28.600Z,989
2022-10-20T01:09:30.462Z,988.9
2022-10-20T01:11:32.348Z,988.9
2022-10-20T01:13:33.994Z,988.8
2022-10-20T01:15:35.641Z,988.8
2022-10-20T01:17:37.595Z,988.8
2022-10-20T01:19:38.565Z,988.8
2022-10-20T01:21:39.854Z,988.8
2022-10-20T01:23:41.816Z,988.8
2022-10-20T01:25:43.718Z,988.7
2022-10-20T01:27:44.956Z,988.7
2022-10-20T01:31:47.733Z,988.7
2022-10-20T01:33:49.613Z,988.6
2022-10-20T01:37:52.847Z,988.5
2022-10-20T01:39:54.327Z,988.5
2022-10-20T01:41:55.620Z,988.6
2022-10-20T01:43:56.766Z,988.5
2022-10-20T01:45:58.719Z,988.5
2022-10-20T01:48:00.503Z,988.4
2022-10-20T01:50:01.625Z,988.4
2022-10-20T01:52:03.245Z,988.3
2022-10-20T01:54:04.786Z,988.3
2022-10-20T01:56:05.982Z,988.3
2022-10-20T01:58:07.428Z,988.2
2022-10-20T02:00:08.808Z,988.2
2022-10-20T02:02:10.071Z,988.2
2022-10-20T02:04:11.519Z,988.2
2022-10-20T02:06:12.929Z,988
2022-10-20T02:08:14.535Z,988.1
2022-10-20T02:10:15.806Z,988
2022-10-20T02:12:16.885Z,988.1
2022-10-20T02:14:18.843Z,988
2022-10-20T02:16:19.905Z,988.1
2022-10-20T02:18:21.674Z,988.1
2022-10-20T02:20:23.262Z,988.1
2022-10-20T02:22:24.852Z,988.2
2022-10-20T02:24:26.330Z,988.1
2022-10-20T02:26:27.664Z,988.1
2022-10-20T02:28:29.047Z,988.1
2022-10-20T02:30:30.494Z,988.1
2022-10-20T02:32:31.935Z,988.1
2022-10-20T02:36:34.917Z,988
2022-10-20T02:38:36.591Z,988.1
2022-10-20T02:40:38.344Z,988.1
2022-10-20T02:42:39.724Z,988
2022-10-20T02:44:41.194Z,987.9
2022-10-20T02:46:43.082Z,987.9
2022-10-20T02:48:44.282Z,987.8
2022-10-20T02:50:46.243Z,987.9
2022-10-20T02:52:47.495Z,987.8
2022-10-20T02:54:49.063Z,987.9
2022-10-20T02:56:50.447Z,988
2022-10-20T02:58:51.932Z,987.9
2022-10-20T03:00:53.263Z,987.9
2022-10-20T03:02:54.648Z,988
2022-10-20T03:04:56.141Z,987.9
2022-10-20T03:06:58.055Z,987.9
2022-10-20T03:09:00.318Z,987.8
2022-10-20T03:11:01.895Z,987.8
2022-10-20T03:13:03.309Z,987.9
2022-10-20T03:15:05.121Z,988
2022-10-20T03:19:10.301Z,987.9
2022-10-20T03:21:09.309Z,988
2022-10-20T03:23:10.351Z,987.8
2022-10-20T03:25:12.295Z,987.8
2022-10-20T03:27:13.425Z,987.8
2022-10-20T03:29:14.525Z,987.6
2022-10-20T03:31:16.427Z,987.6
2022-10-20T03:33:17.679Z,987.6
2022-10-20T03:35:19.573Z,987.7
2022-10-20T03:37:20.773Z,987.6
2022-10-20T03:39:21.959Z,987.6
2022-10-20T03:41:22.934Z,987.6
2022-10-20T03:43:24.153Z,987.6
2022-10-20T03:45:25.779Z,987.7
2022-10-20T03:47:27.210Z,987.7
2022-10-20T03:49:28.655Z,987.8
2022-10-20T03:51:30.139Z,987.7
2022-10-20T03:53:31.579Z,987.7
2022-10-20T03:55:32.551Z,987.7
2022-10-20T03:57:33.824Z,987.6
2022-10-20T03:59:35.318Z,987.7
2022-10-20T04:01:36.533Z,987.7
2022-10-20T04:03:38.202Z,987.6
2022-10-20T04:05:39.570Z,987.5
2022-10-20T04:07:41.535Z,987.7
2022-10-20T04:09:42.998Z,987.5
2022-10-20T04:11:44.503Z,987.5
2022-10-20T04:13:45.761Z,987.5
2022-10-20T04:15:47.111Z,987.5
2022-10-20T04:17:48.732Z,987.5
2022-10-20T04:19:49.957Z,987.2
2022-10-20T04:21:51.438Z,987.3
2022-10-20T04:23:52.798Z,987.2
2022-10-20T04:25:54.133Z,987.3
2022-10-20T04:27:55.252Z,987.2
2022-10-20T04:29:56.320Z,987.2
2022-10-20T04:31:58.181Z,987.3
2022-10-20T04:33:59.797Z,987.2
2022-10-20T04:38:03.626Z,987.3
2022-10-20T04:40:05.194Z,987.2
2022-10-20T04:42:06.883Z,987.1
2022-10-20T04:44:07.998Z,987.1
2022-10-20T04:46:09.880Z,987.2
2022-10-20T04:48:11.816Z,987.1
2022-10-20T04:50:13.297Z,987.1
2022-10-20T04:52:14.206Z,987
2022-10-20T04:54:15.703Z,986.8
2022-10-20T04:56:17.263Z,986.8
2022-10-20T04:58:18.221Z,986.7
2022-10-20T05:00:19.473Z,986.7
2022-10-20T05:02:20.976Z,986.7
2022-10-20T05:04:22.684Z,986.6
2022-10-20T05:06:24.484Z,986.7
2022-10-20T05:08:25.513Z,986.6
2022-10-20T05:10:27.216Z,986.6
2022-10-20T05:12:28.282Z,986.6
2022-10-20T05:14:30.112Z,986.4
2022-10-20T05:16:31.711Z,986.5
2022-10-20T05:18:33.646Z,986.4
2022-10-20T05:20:36.903Z,986.5
2022-10-20T05:22:35.933Z,986.5
2022-10-20T05:24:37.381Z,986.5
2022-10-20T05:26:39.146Z,986.5
2022-10-20T05:28:41.098Z,986.5
2022-10-20T05:32:44.477Z,986.5
2022-10-20T05:34:45.824Z,986.5
2022-10-20T05:36:47.159Z,986.5
2022-10-20T05:38:49.004Z,986.4
2022-10-20T05:40:59.409Z,986.5
2022-10-20T05:42:52.179Z,986.5
2022-10-20T05:44:53.855Z,986.5
2022-10-20T05:46:55.584Z,986.5
2022-10-20T05:48:57.392Z,986.5
2022-10-20T05:50:58.422Z,986.5
2022-10-20T05:52:59.367Z,986.5
2022-10-20T05:55:00.745Z,986.6
2022-10-20T05:57:02.287Z,986.6
2022-10-20T05:59:03.509Z,986.5
2022-10-20T06:01:05.110Z,986.6
2022-10-20T06:03:06.693Z,986.6
2022-10-20T06:05:08.063Z,986.5
2022-10-20T06:07:09.553Z,986.5
2022-10-20T06:09:10.872Z,986.5
2022-10-20T06:11:11.876Z,986.7
2022-10-20T06:13:13.125Z,986.6
2022-10-20T06:15:14.898Z,986.6
2022-10-20T06:19:17.576Z,986.6
2022-10-20T06:21:18.783Z,986.5
2022-10-20T06:23:20.417Z,986.5
2022-10-20T06:25:21.745Z,986.5
2022-10-20T06:27:23.141Z,986.5
2022-10-20T06:29:24.270Z,986.4
2022-10-20T06:31:25.709Z,986.4
2022-10-20T06:33:27.177Z,986.4
2022-10-20T06:35:28.289Z,986.4
2022-10-20T06:37:29.613Z,986.4
2022-10-20T06:39:31.109Z,986.3
2022-10-20T06:41:32.618Z,986.3
2022-10-20T06:43:34.219Z,986.2
2022-10-20T06:45:35.505Z,986.2
2022-10-20T06:47:37.116Z,986.3
2022-10-20T06:49:38.398Z,986.2
2022-10-20T06:51:39.535Z,986.2
2022-10-20T06:53:42.558Z,986.2
2022-10-20T06:55:41.954Z,986.1
2022-10-20T06:57:43.459Z,986.3
2022-10-20T06:59:44.738Z,986.3
2022-10-20T07:01:45.669Z,986.3
2022-10-20T07:03:46.655Z,986.4
2022-10-20T07:05:48.010Z,986.4
2022-10-20T07:07:49.657Z,986.3
2022-10-20T07:09:50.653Z,986.5
2022-10-20T07:11:52.582Z,986.5
2022-10-20T07:13:53.611Z,986.5
2022-10-20T07:15:55.323Z,986.5
2022-10-20T07:17:56.764Z,986.6
2022-10-20T07:19:57.898Z,986.6
2022-10-20T07:24:00.411Z,986.6
2022-10-20T07:24:44.196Z,986.7
2022-10-20T07:28:49.852Z,986.6
2022-10-20T07:30:49.169Z,986.6
2022-10-20T07:32:50.253Z,986.6
2022-10-20T07:34:51.860Z,986.5
2022-10-20T07:36:53.306Z,986.4
2022-10-20T07:38:55.042Z,986.4
2022-10-20T07:40:57.295Z,986.4
2022-10-20T07:42:57.382Z,986.4
2022-10-20T07:44:59.062Z,986.4
2022-10-20T07:47:00.566Z,986.3
2022-10-20T07:49:42.743Z,986.2
2022-10-20T07:51:03.449Z,986.2
2022-10-20T07:53:04.537Z,986.3
2022-10-20T07:55:17.489Z,986.4
2022-10-20T07:57:07.499Z,986.4
2022-10-20T08:01:09.915Z,986.4
2022-10-20T08:03:10.908Z,986.3
2022-10-20T08:05:12.223Z,986.4
2022-10-20T08:07:13.379Z,986.3
2022-10-20T08:09:14.919Z,986.3
2022-10-20T08:11:16.310Z,986.3
2022-10-20T08:13:17.178Z,986.4
2022-10-20T08:15:18.491Z,986.3
2022-10-20T08:17:19.780Z,986.2
2022-10-20T08:19:21.357Z,986.3
2022-10-20T08:21:23.026Z,986.2
2022-10-20T08:23:24.856Z,986.2
2022-10-20T08:27:27.915Z,986.4
2022-10-20T08:29:29.522Z,986.5
2022-10-20T08:31:30.765Z,986.5
2022-10-20T08:33:32.369Z,986.5
2022-10-20T08:35:33.415Z,986.4
2022-10-20T08:37:34.792Z,986.3
2022-10-20T08:39:36.240Z,986.3
2022-10-20T08:43:39.400Z,986.4
2022-10-20T08:45:41.061Z,986.4
2022-10-20T08:47:42.022Z,986.3
2022-10-20T08:49:43.555Z,986.3
2022-10-20T08:51:44.747Z,986.2
2022-10-20T08:53:46.550Z,986.2
2022-10-20T08:55:48.187Z,986.3
2022-10-20T08:57:49.577Z,986.2
2022-10-20T08:59:50.622Z,986.2
2022-10-20T09:01:52.453Z,986
2022-10-20T09:03:53.346Z,985.9
2022-10-20T09:05:54.694Z,986
2022-10-20T09:07:55.534Z,985.9
2022-10-20T09:09:56.974Z,985.9
2022-10-20T09:11:58.683Z,986
2022-10-20T09:13:59.594Z,986.1
2022-10-20T09:16:01.348Z,986
2022-10-20T09:18:02.739Z,986
2022-10-20T09:20:04.639Z,986
2022-10-20T09:22:05.723Z,985.9
2022-10-20T09:24:06.683Z,985.9
2022-10-20T09:26:07.793Z,985.9
2022-10-20T09:28:08.749Z,985.9
2022-10-20T09:30:10.467Z,985.9
2022-10-20T09:32:41.096Z,985.8
2022-10-20T09:34:13.863Z,985.9
2022-10-20T09:36:15.061Z,985.9
2022-10-20T09:38:16.079Z,985.9
2022-10-20T09:42:18.440Z,986
2022-10-20T09:44:19.413Z,986.1
2022-10-20T09:46:21.293Z,986.1
2022-10-20T09:48:22.681Z,986
2022-10-20T09:50:24.012Z,985.8
2022-10-20T09:52:25.494Z,985.8
2022-10-20T09:54:26.812Z,985.9
2022-10-20T09:56:28.112Z,985.8
2022-10-20T09:58:29.619Z,985.9
2022-10-20T10:00:36.651Z,986.1
2022-10-20T10:02:32.848Z,986.2
2022-10-20T10:04:42.256Z,986.3
2022-10-20T10:06:35.809Z,986.1
2022-10-20T10:08:36.833Z,986.1
2022-10-20T10:10:37.763Z,986.1
2022-10-20T10:12:39.783Z,986
2022-10-20T10:14:40.637Z,985.9
2022-10-20T10:16:42.396Z,985.8
2022-10-20T10:18:46.777Z,985.8
2022-10-20T10:20:44.466Z,985.9
2022-10-20T10:22:45.566Z,986.1
2022-10-20T10:24:47.404Z,986.1
2022-10-20T10:26:49.191Z,986.1
2022-10-20T10:28:50.400Z,986
2022-10-20T10:30:52.007Z,986
2022-10-20T10:32:53.225Z,986.2
2022-10-20T10:34:54.778Z,986.1
2022-10-20T10:36:56.069Z,986
2022-10-20T10:38:56.910Z,986.1
2022-10-20T10:40:58.058Z,986.1
2022-10-20T10:42:59.490Z,986
2022-10-20T10:45:00.404Z,985.9
2022-10-20T10:47:01.920Z,985.8
2022-10-20T10:49:04.294Z,985.7
2022-10-20T10:51:05.245Z,985.6
2022-10-20T10:53:07.045Z,985.7
2022-10-20T10:55:09.981Z,985.7
2022-10-20T10:57:11.832Z,985.7
2022-10-20T10:59:11.353Z,985.7
2022-10-20T11:01:12.639Z,985.9
2022-10-20T11:03:14.241Z,985.9
2022-10-20T11:07:17.508Z,985.8
2022-10-20T11:09:18.861Z,985.7
2022-10-20T11:11:20.403Z,985.8
2022-10-20T11:13:23.029Z,986
2022-10-20T11:15:22.441Z,986
2022-10-20T11:17:24.246Z,986
2022-10-20T11:19:25.828Z,985.9
2022-10-20T11:21:26.921Z,986
2022-10-20T11:23:28.052Z,986
2022-10-20T11:25:29.485Z,986.1
2022-10-20T11:27:30.959Z,986.1
2022-10-20T11:29:32.708Z,986
2022-10-20T11:31:33.619Z,986
2022-10-20T11:33:35.699Z,986
2022-10-20T11:35:35.801Z,985.9
2022-10-20T11:37:36.786Z,985.8
2022-10-20T11:39:38.044Z,985.6
2022-10-20T11:41:39.446Z,985.5
2022-10-20T11:43:41.037Z,985.4
2022-10-20T11:45:42.556Z,985.4
2022-10-20T11:47:43.993Z,985.5
2022-10-20T11:49:45.560Z,985.4
2022-10-20T11:51:46.900Z,985.4
2022-10-20T11:53:48.076Z,985.4
2022-10-20T11:55:49.526Z,985.4
2022-10-20T11:57:50.741Z,985.4
2022-10-20T11:59:52.520Z,985.4
2022-10-20T12:01:53.671Z,985.2
2022-10-20T12:03:55.431Z,985.3
2022-10-20T12:05:56.538Z,985.2
2022-10-20T12:08:11.309Z,984.9
2022-10-20T12:09:58.780Z,985.1
2022-10-20T12:12:00.409Z,985.2
2022-10-20T12:14:10.216Z,985.2
2022-10-20T12:16:11.624Z,985.2
2022-10-20T12:18:04.433Z,985.2
2022-10-20T12:20:06.051Z,985.1
2022-10-20T12:22:06.868Z,985
2022-10-20T12:24:08.383Z,984.9
2022-10-20T12:26:09.285Z,984.8
2022-10-20T12:28:10.656Z,984.8
2022-10-20T12:32:13.503Z,984.7
2022-10-20T12:34:14.394Z,984.7
2022-10-20T12:36:15.444Z,984.8
2022-10-20T12:38:17.234Z,984.9
2022-10-20T12:42:19.780Z,985
2022-10-20T12:44:21.080Z,984.9
2022-10-20T12:48:23.973Z,984.9
2022-10-20T12:50:25.142Z,984.8
2022-10-20T12:52:26.364Z,984.9
2022-10-20T12:54:27.254Z,984.8
2022-10-20T12:56:28.507Z,984.7
2022-10-20T12:58:29.956Z,984.6
2022-10-20T13:00:31.699Z,984.6
2022-10-20T13:02:33.304Z,984.6
2022-10-20T13:04:34.191Z,984.6
2022-10-20T13:06:35.644Z,984.7
2022-10-20T13:08:37.152Z,984.6
2022-10-20T13:10:38.882Z,984.6
2022-10-20T13:12:40.394Z,984.6
2022-10-20T13:14:41.334Z,984.6
2022-10-20T13:16:42.857Z,984.7
2022-10-20T13:18:44.719Z,984.7
2022-10-20T13:20:45.860Z,984.8
2022-10-20T13:22:47.283Z,984.8
2022-10-20T13:24:48.731Z,984.8
2022-10-20T13:26:49.748Z,984.8
2022-10-20T13:28:51.406Z,984.9
2022-10-20T13:30:52.279Z,984.9
2022-10-20T13:33:01.902Z,984.8
2022-10-20T13:34:54.360Z,984.9
2022-10-20T13:36:55.414Z,985
2022-10-20T13:38:56.747Z,985
2022-10-20T13:40:58.239Z,985.2
2022-10-20T13:42:59.788Z,985.2
2022-10-20T13:45:01.241Z,985.2
2022-10-20T13:47:02.278Z,985.3
2022-10-20T13:49:03.178Z,985.2
2022-10-20T13:51:04.311Z,985.2
2022-10-20T13:53:05.367Z,985.1
2022-10-20T13:55:06.899Z,985.1
2022-10-20T13:57:07.806Z,985
2022-10-20T13:59:09.082Z,985.1
2022-10-20T14:01:10.518Z,985.2
2022-10-20T14:03:11.408Z,985.2
2022-10-20T14:05:12.998Z,985.1
2022-10-20T14:07:14.587Z,985.1
2022-10-20T14:09:15.978Z,985
2022-10-20T14:09:59.793Z,984.9
2022-10-20T14:14:02.155Z,985.1
2022-10-20T14:16:03.551Z,985.2
2022-10-20T14:18:04.554Z,985
2022-10-20T14:20:05.693Z,984.8
2022-10-20T14:22:06.691Z,984.7
2022-10-20T14:24:07.927Z,984.6
2022-10-20T14:26:09.449Z,984.4
2022-10-20T14:28:11.084Z,984.5
2022-10-20T14:30:12.765Z,984.3
2022-10-20T14:32:14.567Z,984.3
2022-10-20T14:36:17.294Z,984.1
2022-10-20T14:38:18.243Z,983.9
2022-10-20T14:40:19.240Z,983.9
2022-10-20T14:42:20.562Z,984.2
2022-10-20T14:44:29.529Z,984.2
2022-10-20T14:46:22.666Z,984.4
2022-10-20T14:48:23.876Z,984.4
2022-10-20T14:50:25.534Z,984.3
2022-10-20T14:52:26.790Z,984.2
2022-10-20T14:54:28.601Z,984.2
2022-10-20T14:56:29.768Z,984.3
2022-10-20T14:58:30.927Z,984.2
2022-10-20T15:00:32.315Z,984.2
2022-10-20T15:02:34.024Z,984.1
2022-10-20T15:04:36.245Z,984
2022-10-20T15:06:36.593Z,984.1
2022-10-20T15:08:38.395Z,984
2022-10-20T15:12:41.382Z,983.9
2022-10-20T15:14:42.303Z,983.9
2022-10-20T15:16:43.303Z,983.9
2022-10-20T15:18:44.324Z,984
2022-10-20T15:20:45.674Z,984.1
2022-10-20T15:22:46.960Z,984
2022-10-20T15:24:48.566Z,983.9
2022-10-20T15:26:49.724Z,984
2022-10-20T15:28:50.800Z,984.1
2022-10-20T15:30:51.756Z,984
2022-10-20T15:32:52.925Z,984.1
2022-10-20T15:34:54.507Z,984.1
2022-10-20T15:36:55.785Z,984.2
2022-10-20T15:38:56.987Z,984.2
2022-10-20T15:40:58.419Z,984.2
2022-10-20T15:42:59.574Z,984.2
2022-10-20T15:45:00.867Z,984.1
2022-10-20T15:47:02.119Z,984
2022-10-20T15:49:03.283Z,984
2022-10-20T15:51:04.591Z,984
2022-10-20T15:53:05.774Z,983.9
2022-10-20T15:55:07.281Z,984.1
2022-10-20T15:57:08.566Z,984.2
2022-10-20T15:59:10.314Z,984.1
2022-10-20T16:01:11.441Z,984
2022-10-20T16:03:13.237Z,984
2022-10-20T16:05:14.970Z,984
2022-10-20T16:07:16.418Z,984
2022-10-20T16:09:17.468Z,984.1
2022-10-20T16:11:19.129Z,984
2022-10-20T16:13:20.757Z,984
2022-10-20T16:15:22.478Z,984.1
2022-10-20T16:17:23.844Z,984.1
2022-10-20T16:21:27.419Z,984
2022-10-20T16:23:28.307Z,984
2022-10-20T16:25:29.379Z,984
2022-10-20T16:27:31.028Z,984
2022-10-20T16:31:33.165Z,984
2022-10-20T16:33:35.035Z,983.9
2022-10-20T16:35:36.913Z,983.9
2022-10-20T16:37:38.176Z,984
2022-10-20T16:39:39.328Z,984
2022-10-20T16:41:40.929Z,984
2022-10-20T16:43:42.514Z,984
2022-10-20T16:45:43.895Z,983.9
2022-10-20T16:47:44.825Z,984
2022-10-20T16:49:46.252Z,984.1
2022-10-20T16:51:47.455Z,984
2022-10-20T16:53:48.815Z,984.2
2022-10-20T16:55:50.303Z,984.2
2022-10-20T16:57:52.103Z,984.2
2022-10-20T16:59:53.059Z,984.1
2022-10-20T17:01:54.106Z,984.1
2022-10-20T17:03:55.853Z,984
2022-10-20T17:05:56.866Z,984
2022-10-20T17:07:58.053Z,984
2022-10-20T17:09:59.271Z,984
2022-10-20T17:12:01.114Z,984
2022-10-20T17:14:02.053Z,984
2022-10-20T17:16:03.244Z,984
2022-10-20T17:18:04.463Z,984.1
2022-10-20T17:20:05.470Z,984.1
2022-10-20T17:22:06.811Z,984
2022-10-20T17:24:08.407Z,983.9
2022-10-20T17:26:09.806Z,984
2022-10-20T17:28:11.255Z,984
2022-10-20T17:30:12.865Z,983.9
2022-10-20T17:32:15.866Z,983.9
2022-10-20T17:36:18.118Z,984
2022-10-20T17:38:19.716Z,984
2022-10-20T17:40:20.812Z,984.1
2022-10-20T17:42:21.954Z,984
2022-10-20T17:44:23.268Z,984.1
2022-10-20T17:46:24.674Z,983.9
2022-10-20T17:48:26.161Z,983.8
2022-10-20T17:50:27.183Z,983.8
2022-10-20T17:52:29.035Z,983.8
2022-10-20T17:54:30.127Z,983.7
2022-10-20T17:56:31.491Z,983.6
2022-10-20T17:58:32.391Z,983.5
2022-10-20T18:00:51.462Z,983.5
2022-10-20T18:02:35.479Z,983.5
2022-10-20T18:04:36.782Z,983.7
2022-10-20T18:06:38.027Z,983.7
2022-10-20T18:08:39.325Z,983.7
2022-10-20T18:10:42.808Z,983.6
2022-10-20T18:12:42.137Z,983.5
2022-10-20T18:14:43.162Z,983.4
2022-10-20T18:16:44.161Z,983.5
2022-10-20T18:18:45.303Z,983.6
2022-10-20T18:20:47.069Z,983.6
2022-10-20T18:22:48.906Z,983.5
2022-10-20T18:24:50.442Z,983.5
2022-10-20T18:26:52.086Z,983.5
2022-10-20T18:28:53.221Z,983.6
2022-10-20T18:30:55.086Z,983.6
2022-10-20T18:32:56.853Z,983.6
2022-10-20T18:34:58.036Z,983.8
2022-10-20T18:36:59.752Z,983.8
2022-10-20T18:39:00.952Z,983.8
2022-10-20T18:41:02.603Z,983.8
2022-10-20T18:43:03.906Z,983.9
2022-10-20T18:45:05.460Z,983.9
2022-10-20T18:47:14.476Z,983.8
2022-10-20T18:49:08.085Z,983.9
2022-10-20T18:51:09.954Z,984.3
2022-10-20T18:53:11.850Z,984.2
2022-10-20T18:55:13.029Z,984.1
2022-10-20T18:57:14.375Z,984
2022-10-20T19:01:16.472Z,984
2022-10-20T19:03:17.514Z,984
2022-10-20T19:05:18.806Z,984.1
2022-10-20T19:07:20.178Z,984.3
2022-10-20T19:09:22.059Z,984.2
2022-10-20T19:11:23.604Z,984.2
2022-10-20T19:13:24.657Z,984
2022-10-20T19:17:28.087Z,984.1
2022-10-20T19:19:29.674Z,984.1
2022-10-20T19:21:31.543Z,984.2
2022-10-20T19:23:33.256Z,984.1
2022-10-20T19:25:34.739Z,984.2
2022-10-20T19:27:36.270Z,984.2
2022-10-20T19:29:37.700Z,984.2
2022-10-20T19:31:38.799Z,984.3
2022-10-20T19:33:39.848Z,984.2
2022-10-20T19:35:41.002Z,984
2022-10-20T19:37:41.947Z,984.1
2022-10-20T19:39:43.681Z,984.1
2022-10-20T19:41:45.262Z,984.1
2022-10-20T19:43:47.021Z,984
2022-10-20T19:45:49.177Z,984.1
2022-10-20T19:47:49.758Z,984
2022-10-20T19:49:51.417Z,984
2022-10-20T19:51:53.291Z,983.8
2022-10-20T19:53:55.063Z,983.7
2022-10-20T19:55:56.311Z,983.7
2022-10-20T19:59:58.991Z,983.8
2022-10-20T20:02:00.178Z,983.5
2022-10-20T20:04:01.529Z,983.7
2022-10-20T20:06:03.333Z,983.7
2022-10-20T20:08:04.616Z,983.7
2022-10-20T20:10:06.422Z,983.8
2022-10-20T20:12:07.427Z,983.8
2022-10-20T20:14:09.010Z,983.8
2022-10-20T20:16:10.773Z,983.9
2022-10-20T20:18:12.261Z,983.8
2022-10-20T20:20:14.152Z,983.7
2022-10-20T20:22:15.463Z,983.7
2022-10-20T20:24:17.236Z,983.6
2022-10-20T20:26:18.130Z,983.5
2022-10-20T20:28:19.068Z,983.5
2022-10-20T20:30:19.980Z,983.4
2022-10-20T20:32:21.129Z,983.7
2022-10-20T20:34:22.177Z,983.8
2022-10-20T20:36:23.648Z,983.8
2022-10-20T20:38:24.541Z,983.9
2022-10-20T20:40:26.073Z,984
2022-10-20T20:42:26.996Z,983.8
2022-10-20T20:44:28.831Z,983.9
2022-10-20T20:46:30.055Z,983.7
2022-10-20T20:48:31.109Z,983.8
2022-10-20T20:50:32.406Z,983.8
2022-10-20T20:52:33.353Z,983.7
2022-10-20T20:54:34.369Z,983.6
2022-10-20T20:57:19.374Z,983.8
2022-10-20T20:59:21.084Z,983.6
2022-10-20T21:01:22.397Z,983.6
2022-10-20T21:03:24.106Z,983.7
2022-10-20T21:05:25.342Z,983.6
2022-10-20T21:07:26.986Z,983.8
2022-10-20T21:09:28.029Z,983.8
2022-10-20T21:11:28.928Z,983.7
2022-10-20T21:13:30.084Z,983.7
2022-10-20T21:15:31.979Z,983.6
2022-10-20T21:17:33.102Z,983.5
2022-10-20T21:19:35.049Z,983.4
2022-10-20T21:21:36.272Z,983.4
2022-10-20T21:23:37.451Z,983.4
2022-10-20T21:25:38.693Z,983.3
2022-10-20T21:27:39.780Z,983.5
2022-10-20T21:29:43.000Z,983.6
2022-10-20T21:31:42.445Z,983.6
2022-10-20T21:35:44.459Z,983.3
2022-10-20T21:37:46.318Z,983.4
2022-10-20T21:39:47.817Z,983.4
2022-10-20T21:41:49.093Z,983.5
2022-10-20T21:43:49.984Z,983.6
2022-10-20T21:45:51.249Z,983.6
2022-10-20T21:47:52.249Z,983.7
2022-10-20T21:49:53.969Z,983.6
2022-10-20T21:51:55.659Z,983.5
2022-10-20T21:53:56.699Z,983.5
2022-10-20T21:55:58.306Z,983.5
2022-10-20T21:58:00.113Z,983.5
2022-10-20T22:02:02.939Z,983.7
2022-10-20T22:04:04.363Z,983.8
2022-10-20T22:06:05.666Z,983.7
2022-10-20T22:08:06.674Z,983.5
2022-10-20T22:12:09.061Z,983.6
2022-10-20T22:14:10.946Z,983.6
2022-10-20T22:16:12.589Z,983.6
2022-10-20T22:18:14.334Z,983.4
2022-10-20T22:20:15.778Z,983.3
2022-10-20T22:22:16.846Z,983.3
2022-10-20T22:24:18.018Z,983.3
2022-10-20T22:26:19.058Z,983.3
2022-10-20T22:28:20.411Z,983.4
2022-10-20T22:30:21.499Z,983.4
2022-10-20T22:32:22.531Z,983.4
2022-10-20T22:34:24.410Z,983.2
2022-10-20T22:36:26.189Z,983.1
2022-10-20T22:38:27.901Z,983
2022-10-20T22:40:29.317Z,983
2022-10-20T22:42:30.553Z,983
2022-10-20T22:44:31.967Z,983
2022-10-20T22:46:33.293Z,983
2022-10-20T22:48:34.505Z,982.8
2022-10-20T22:50:35.962Z,982.8
2022-10-20T22:52:37.927Z,982.9
2022-10-20T22:54:39.234Z,982.9
2022-10-20T22:56:40.651Z,982.9
2022-10-20T23:00:43.406Z,983
2022-10-20T23:02:44.874Z,983
2022-10-20T23:04:46.694Z,982.9
2022-10-20T23:06:48.192Z,982.9
2022-10-20T23:08:57.373Z,982.9
2022-10-20T23:10:50.523Z,982.9
2022-10-20T23:12:52.295Z,982.9
2022-10-20T23:14:53.705Z,982.9
2022-10-20T23:16:54.852Z,982.8
2022-10-20T23:18:56.480Z,982.6
2022-10-20T23:20:58.210Z,982.7
2022-10-20T23:22:58.885Z,982.6
2022-10-20T23:25:00.127Z,982.5
2022-10-20T23:27:01.813Z,982.6
2022-10-20T23:29:02.810Z,982.5
2022-10-20T23:31:03.847Z,982.3
2022-10-20T23:33:05.615Z,982.4
2022-10-20T23:35:06.573Z,982.4
2022-10-20T23:37:07.702Z,982.4
2022-10-20T23:39:09.173Z,982.3
2022-10-20T23:41:10.206Z,982.2
2022-10-20T23:43:11.041Z,982.1
2022-10-20T23:45:12.205Z,982.3
2022-10-20T23:47:13.510Z,982.4
2022-10-20T23:49:15.347Z,982.2
2022-10-20T23:51:16.360Z,982.2
2022-10-20T23:53:17.857Z,982.2
2022-10-20T23:55:18.861Z,982.2
2022-10-20T23:57:19.990Z,982.3
2022-10-20T23:59:20.867Z,982.1
